createdAt,value
2023-01-23T00:00:21.027Z,1.74
2023-01-23T00:03:24.605Z,1.79
2023-01-23T00:06:28.185Z,1.73
2023-01-23T00:09:32.883Z,1.73
2023-01-23T00:12:35.824Z,1.77
2023-01-23T00:15:40.607Z,1.71
2023-01-23T00:18:43.761Z,1.71
2023-01-23T00:21:46.902Z,1.64
2023-01-23T00:24:51.433Z,1.69
2023-01-23T00:27:54.635Z,1.65
2023-01-23T00:31:04.421Z,1.62
2023-01-23T00:34:09.416Z,1.64
2023-01-23T00:37:12.516Z,1.64
2023-01-23T00:40:17.661Z,1.69
2023-01-23T00:43:20.689Z,1.67
2023-01-23T00:46:24.196Z,1.65
2023-01-23T00:49:27.332Z,1.71
2023-01-23T00:52:30.432Z,1.68
2023-01-23T00:55:34.718Z,1.71
2023-01-23T00:58:37.677Z,1.70
2023-01-23T01:01:41.128Z,1.72
2023-01-23T01:04:44.276Z,1.71
2023-01-23T01:07:47.362Z,1.66
2023-01-23T01:10:51.792Z,1.62
2023-01-23T01:13:54.784Z,1.60
2023-01-23T01:16:58.753Z,1.50
2023-01-23T01:20:01.459Z,1.53
2023-01-23T01:23:04.360Z,1.51
2023-01-23T01:26:09.012Z,1.56
2023-01-23T01:29:12.188Z,1.62
2023-01-23T01:32:15.975Z,1.67
2023-01-23T01:35:18.989Z,1.68
2023-01-23T01:38:21.833Z,1.76
2023-01-23T01:41:27.011Z,1.70
2023-01-23T01:44:29.671Z,1.72
2023-01-23T01:47:32.365Z,1.70
2023-01-23T01:50:35.452Z,1.71
2023-01-23T01:53:39.471Z,1.76
2023-01-23T01:56:48.864Z,1.74
2023-01-23T01:59:57.294Z,1.75
2023-01-23T02:03:03.433Z,1.78
2023-01-23T02:06:07.174Z,1.73
2023-01-23T02:09:16.837Z,1.71
2023-01-23T02:12:20.877Z,1.69
2023-01-23T02:15:24.041Z,1.75
2023-01-23T02:18:29.070Z,1.73
2023-01-23T02:21:31.743Z,1.72
2023-01-23T02:24:40.201Z,1.81
2023-01-23T02:27:44.545Z,1.77
2023-01-23T02:30:47.787Z,1.69
2023-01-23T02:33:53.772Z,1.78
2023-01-23T02:36:56.533Z,1.74
2023-01-23T02:39:59.166Z,1.69
2023-01-23T02:43:05.375Z,1.69
2023-01-23T02:46:09.950Z,1.75
2023-01-23T02:49:13.180Z,1.68
2023-01-23T02:52:16.054Z,1.68
2023-01-23T02:55:18.710Z,1.68
2023-01-23T02:58:39.977Z,1.73
2023-01-23T03:01:42.696Z,1.77
2023-01-23T03:04:45.326Z,1.80
2023-01-23T03:07:48.248Z,1.87
2023-01-23T03:10:51.240Z,1.88
2023-01-23T03:13:55.334Z,1.86
2023-01-23T03:16:58.584Z,1.88
2023-01-23T03:20:01.556Z,1.88
2023-01-23T03:23:04.241Z,1.88
2023-01-23T03:26:07.071Z,1.90
2023-01-23T03:29:33.610Z,1.93
2023-01-23T03:32:38.494Z,1.91
2023-01-23T03:35:41.081Z,1.94
2023-01-23T03:39:03.727Z,1.91
2023-01-23T03:42:05.516Z,1.90
2023-01-23T03:45:10.474Z,1.91
2023-01-23T03:48:13.130Z,1.86
2023-01-23T03:51:15.840Z,1.80
2023-01-23T03:54:18.945Z,1.85
2023-01-23T03:57:21.934Z,1.94
2023-01-23T04:00:25.932Z,1.84
2023-01-23T04:03:28.621Z,1.78
2023-01-23T04:06:31.367Z,1.79
2023-01-23T04:09:34.144Z,1.86
2023-01-23T04:12:37.129Z,1.89
2023-01-23T04:15:41.143Z,1.87
2023-01-23T04:18:43.798Z,1.87
2023-01-23T04:21:46.661Z,1.95
2023-01-23T04:24:49.301Z,1.88
2023-01-23T04:27:51.933Z,1.87
2023-01-23T04:30:56.033Z,1.89
2023-01-23T04:33:58.699Z,1.89
2023-01-23T04:37:01.339Z,1.97
2023-01-23T04:40:04.295Z,1.98
2023-01-23T04:43:06.952Z,2.00
2023-01-23T04:46:11.166Z,2.04
2023-01-23T04:49:14.307Z,2.06
2023-01-23T04:52:16.950Z,2.08
2023-01-23T04:55:19.622Z,2.02
2023-01-23T04:58:22.411Z,2.05
2023-01-23T05:01:26.632Z,2.06
2023-01-23T05:04:29.428Z,2.02
2023-01-23T05:07:32.088Z,1.96
2023-01-23T05:10:34.766Z,1.98
2023-01-23T05:13:37.466Z,1.93
2023-01-23T05:16:41.541Z,2.03
2023-01-23T05:19:44.195Z,1.99
2023-01-23T05:22:53.092Z,1.96
2023-01-23T05:25:55.836Z,1.98
2023-01-23T05:28:58.470Z,1.91
2023-01-23T05:32:02.763Z,1.91
2023-01-23T05:35:06.038Z,1.96
2023-01-23T05:38:08.697Z,1.94
2023-01-23T05:41:11.740Z,1.96
2023-01-23T05:44:14.499Z,1.94
2023-01-23T05:47:18.551Z,1.92
2023-01-23T05:50:23.723Z,1.97
2023-01-23T05:53:26.451Z,1.87
2023-01-23T05:56:29.373Z,1.91
2023-01-23T05:59:32.139Z,1.98
2023-01-23T06:02:36.592Z,1.96
2023-01-23T06:05:41.228Z,1.93
2023-01-23T06:08:43.949Z,1.89
2023-01-23T06:11:46.563Z,1.80
2023-01-23T06:14:49.385Z,1.81
2023-01-23T06:18:07.156Z,1.73
2023-01-23T06:21:35.687Z,1.72
2023-01-23T06:25:02.327Z,1.61
2023-01-23T06:28:08.389Z,1.58
2023-01-23T06:32:02.711Z,1.61
2023-01-23T06:34:57.425Z,1.68
2023-01-23T06:38:00.250Z,1.73
2023-01-23T06:41:18.966Z,1.68
2023-01-23T06:44:50.442Z,1.65
2023-01-23T06:48:04.578Z,1.63
2023-01-23T06:51:17.293Z,1.66
2023-01-23T06:54:21.715Z,1.74
2023-01-23T06:57:24.463Z,1.82
2023-01-23T07:00:30.855Z,1.89
2023-01-23T07:03:36.293Z,1.90
2023-01-23T07:06:44.278Z,1.90
2023-01-23T07:09:49.440Z,1.92
2023-01-23T07:13:15.157Z,1.97
2023-01-23T07:16:20.209Z,1.92
2023-01-23T07:19:25.047Z,1.95
2023-01-23T07:22:31.273Z,1.93
2023-01-23T07:25:36.111Z,1.97
2023-01-23T07:28:41.457Z,2.01
2023-01-23T07:31:46.302Z,2.02
2023-01-23T07:34:52.747Z,2.00
2023-01-23T07:37:59.660Z,1.97
2023-01-23T07:41:05.879Z,2.04
2023-01-23T07:44:17.931Z,2.03
2023-01-23T07:47:22.978Z,2.11
2023-01-23T07:50:27.931Z,2.08
2023-01-23T07:53:34.592Z,2.12
2023-01-23T07:56:39.491Z,2.11
2023-01-23T07:59:44.936Z,2.08
2023-01-23T08:02:51.639Z,1.94
2023-01-23T08:05:56.548Z,1.94
2023-01-23T08:09:02.999Z,1.96
2023-01-23T08:12:08.022Z,2.03
2023-01-23T08:15:16.295Z,2.02
2023-01-23T08:18:23.483Z,2.03
2023-01-23T08:21:28.686Z,2.09
2023-01-23T08:24:35.370Z,2.19
2023-01-23T08:27:40.564Z,2.25
2023-01-23T08:30:45.621Z,2.23
2023-01-23T08:33:50.991Z,2.32
2023-01-23T08:36:55.891Z,2.36
2023-01-23T08:40:02.323Z,2.39
2023-01-23T08:43:07.194Z,2.40
2023-01-23T08:46:13.405Z,2.40
2023-01-23T08:49:19.995Z,2.51
2023-01-23T08:52:25.029Z,2.48
2023-01-23T08:55:31.191Z,2.51
2023-01-23T08:58:36.132Z,2.52
2023-01-23T09:01:41.261Z,2.56
2023-01-23T09:04:47.025Z,2.57
2023-01-23T09:07:51.928Z,2.68
2023-01-23T09:11:02.669Z,2.87
2023-01-23T09:14:07.580Z,3.03
2023-01-23T09:17:12.489Z,2.97
2023-01-23T09:20:17.053Z,3.00
2023-01-23T09:23:23.035Z,3.10
2023-01-23T09:26:29.618Z,3.07
2023-01-23T09:29:34.148Z,2.97
2023-01-23T09:32:39.101Z,2.81
2023-01-23T09:35:45.813Z,2.51
2023-01-23T09:38:51.400Z,2.44
2023-01-23T09:41:58.423Z,2.50
2023-01-23T09:45:06.377Z,2.41
2023-01-23T09:48:22.993Z,2.32
2023-01-23T09:51:32.622Z,2.37
2023-01-23T09:54:45.825Z,2.45
2023-01-23T09:57:56.197Z,2.23
2023-01-23T10:01:01.031Z,2.10
2023-01-23T10:04:07.486Z,2.15
2023-01-23T10:07:31.428Z,2.13
2023-01-23T10:11:00.359Z,2.06
2023-01-23T10:14:26.494Z,2.11
2023-01-23T10:17:39.527Z,2.28
2023-01-23T10:21:03.027Z,2.27
2023-01-23T10:24:25.741Z,2.22
2023-01-23T10:27:38.785Z,2.22
2023-01-23T10:30:49.361Z,2.24
2023-01-23T10:34:04.882Z,2.36
2023-01-23T10:37:17.610Z,2.57
2023-01-23T10:40:44.576Z,2.75
2023-01-23T10:43:53.090Z,2.97
2023-01-23T10:47:02.715Z,2.85
2023-01-23T10:50:08.366Z,2.71
2023-01-23T10:53:21.553Z,2.49
2023-01-23T10:56:26.442Z,2.58
2023-01-23T10:59:36.355Z,2.61
2023-01-23T11:02:44.385Z,2.68
2023-01-23T11:05:54.052Z,2.37
2023-01-23T11:09:01.614Z,2.30
2023-01-23T11:12:07.934Z,2.45
2023-01-23T11:15:23.989Z,2.56
2023-01-23T11:18:36.271Z,2.70
2023-01-23T11:21:55.592Z,2.80
2023-01-23T11:25:01.250Z,2.84
2023-01-23T11:28:23.880Z,2.87
2023-01-23T11:31:30.401Z,2.91
2023-01-23T11:34:43.635Z,3.00
2023-01-23T11:37:48.614Z,3.03
2023-01-23T11:40:54.636Z,3.12
2023-01-23T11:44:00.388Z,3.21
2023-01-23T11:47:29.701Z,3.22
2023-01-23T11:50:54.460Z,3.25
2023-01-23T11:54:11.744Z,3.26
2023-01-23T11:57:26.146Z,3.33
2023-01-23T12:00:38.451Z,3.37
2023-01-23T12:04:33.975Z,3.25
2023-01-23T12:07:52.739Z,3.24
2023-01-23T12:11:12.589Z,3.24
2023-01-23T12:14:23.749Z,3.07
2023-01-23T12:17:40.811Z,3.08
2023-01-23T12:20:55.221Z,3.10
2023-01-23T12:24:14.687Z,3.14
2023-01-23T12:27:27.421Z,3.18
2023-01-23T12:31:05.672Z,3.21
2023-01-23T12:34:34.219Z,3.33
2023-01-23T12:37:52.689Z,3.46
2023-01-23T12:41:09.834Z,3.65
2023-01-23T12:44:19.408Z,3.84
2023-01-23T12:47:27.381Z,3.90
2023-01-23T12:50:42.215Z,3.88
2023-01-23T12:53:51.422Z,3.89
2023-01-23T12:56:58.410Z,3.96
2023-01-23T13:00:08.894Z,3.98
2023-01-23T13:03:37.274Z,3.92
2023-01-23T13:07:01.275Z,3.83
2023-01-23T13:10:57.372Z,3.83
2023-01-23T13:14:04.181Z,3.73
2023-01-23T13:17:31.130Z,3.79
2023-01-23T13:20:54.294Z,3.75
2023-01-23T13:24:40.877Z,3.79
2023-01-23T13:27:52.065Z,3.82
2023-01-23T13:31:06.282Z,3.88
2023-01-23T13:34:41.077Z,3.85
2023-01-23T13:37:54.352Z,3.87
2023-01-23T13:41:35.190Z,3.85
2023-01-23T13:45:00.141Z,3.85
2023-01-23T14:20:46.290Z,4.00
2023-01-23T14:23:54.289Z,4.05
2023-01-23T14:27:07.838Z,4.07
2023-01-23T14:30:19.604Z,4.06
2023-01-23T14:33:24.705Z,3.99
2023-01-23T14:36:30.000Z,3.94
2023-01-23T14:39:39.831Z,3.86
2023-01-23T14:42:46.204Z,3.83
2023-01-23T14:45:57.472Z,3.85
2023-01-23T14:49:02.489Z,3.78
2023-01-23T14:52:09.267Z,3.75
2023-01-23T14:55:29.807Z,3.70
2023-01-23T14:58:35.224Z,3.66
2023-01-23T15:01:40.622Z,3.74
2023-01-23T15:04:45.509Z,3.67
2023-01-23T15:07:55.337Z,3.60
2023-01-23T15:11:03.648Z,3.60
2023-01-23T15:14:08.716Z,3.66
2023-01-23T15:17:19.117Z,3.61
2023-01-23T15:20:32.295Z,3.71
2023-01-23T15:23:38.373Z,3.71
2023-01-23T15:26:46.417Z,3.58
2023-01-23T15:29:51.518Z,3.56
2023-01-23T15:32:56.602Z,3.51
2023-01-23T15:36:07.467Z,3.49
2023-01-23T15:39:20.663Z,3.41
2023-01-23T15:42:31.802Z,3.46
2023-01-23T15:45:36.917Z,3.48
2023-01-23T15:48:42.020Z,3.40
2023-01-23T15:51:47.077Z,3.41
2023-01-23T15:54:53.648Z,3.38
2023-01-23T15:58:01.898Z,3.37
2023-01-23T16:01:06.906Z,3.34
2023-01-23T16:04:12.475Z,3.37
2023-01-23T16:07:26.924Z,3.37
2023-01-23T16:10:36.145Z,3.35
2023-01-23T16:13:42.527Z,3.28
2023-01-23T16:16:47.857Z,3.29
2023-01-23T16:19:53.268Z,3.30
2023-01-23T16:23:11.589Z,3.30
2023-01-23T16:26:23.346Z,3.28
2023-01-23T16:29:31.814Z,3.34
2023-01-23T16:32:37.156Z,3.24
2023-01-23T16:35:43.197Z,3.15
2023-01-23T16:38:53.443Z,3.09
2023-01-23T16:41:58.365Z,3.06
2023-01-23T16:45:04.980Z,3.09
2023-01-23T16:48:15.387Z,3.10
2023-01-23T16:51:27.521Z,3.13
2023-01-23T16:54:32.569Z,3.22
2023-01-23T16:57:37.834Z,3.13
2023-01-23T17:00:44.827Z,3.17
2023-01-23T17:03:59.765Z,3.08
2023-01-23T17:07:04.456Z,3.09
2023-01-23T17:10:09.625Z,3.07
2023-01-23T17:13:16.375Z,3.08
2023-01-23T17:16:27.667Z,3.11
2023-01-23T17:19:36.670Z,3.10
2023-01-23T17:22:43.999Z,3.14
2023-01-23T17:25:59.797Z,3.19
2023-01-23T17:29:05.230Z,3.17
2023-01-23T17:32:21.550Z,3.20
2023-01-23T17:35:30.382Z,3.22
2023-01-23T17:38:35.735Z,3.18
2023-01-23T17:41:41.356Z,3.13
2023-01-23T17:44:46.800Z,3.08
2023-01-23T17:47:55.110Z,3.08
2023-01-23T17:51:01.089Z,3.07
2023-01-23T17:54:07.081Z,3.07
2023-01-23T17:57:11.971Z,3.11
2023-01-23T18:00:22.118Z,3.16
2023-01-23T18:03:30.144Z,3.22
2023-01-23T18:06:35.591Z,3.24
2023-01-23T18:09:44.389Z,3.19
2023-01-23T18:13:00.063Z,3.15
2023-01-23T18:16:13.612Z,3.19
2023-01-23T18:19:23.292Z,3.24
2023-01-23T18:22:32.286Z,3.24
2023-01-23T18:25:37.969Z,3.23
2023-01-23T18:28:51.903Z,3.25
2023-01-23T18:32:15.796Z,3.20
2023-01-23T18:35:34.466Z,3.20
2023-01-23T18:38:47.775Z,3.23
2023-01-23T18:42:05.612Z,3.30
2023-01-23T18:45:23.573Z,3.27
2023-01-23T18:48:33.225Z,3.25
2023-01-23T18:51:55.701Z,3.30
2023-01-23T18:55:10.039Z,3.23
2023-01-23T18:58:47.075Z,3.15
2023-01-23T19:01:55.732Z,3.16
2023-01-23T19:05:23.083Z,3.16
2023-01-23T19:08:33.043Z,3.19
2023-01-23T19:11:52.407Z,3.22
2023-01-23T19:15:14.148Z,3.21
2023-01-23T19:18:40.762Z,3.23
2023-01-23T19:21:48.438Z,3.23
2023-01-23T19:24:55.671Z,3.28
2023-01-23T19:28:02.351Z,3.30
2023-01-23T19:31:10.901Z,3.27
2023-01-23T19:34:15.833Z,3.21
2023-01-23T19:37:20.661Z,3.20
2023-01-23T19:40:26.755Z,3.21
2023-01-23T19:43:31.398Z,3.25
2023-01-23T19:46:36.347Z,3.23
2023-01-23T19:49:40.934Z,3.26
2023-01-23T19:52:45.535Z,3.25
2023-01-23T19:55:51.291Z,3.29
2023-01-23T19:58:56.589Z,3.32
2023-01-23T20:02:17.874Z,3.30
2023-01-23T20:05:23.253Z,3.29
2023-01-23T20:08:30.651Z,3.25
2023-01-23T20:11:44.824Z,3.35
2023-01-23T20:15:08.433Z,3.31
2023-01-23T20:18:13.404Z,3.40
2023-01-23T20:21:20.063Z,3.36
2023-01-23T20:24:26.381Z,3.37
2023-01-23T20:28:48.913Z,3.35
2023-01-23T20:32:06.556Z,3.38
2023-01-23T20:35:29.060Z,3.34
2023-01-23T20:38:59.854Z,3.31
2023-01-23T20:42:06.832Z,3.31
2023-01-23T20:45:16.544Z,3.34
2023-01-23T20:48:39.798Z,3.40
2023-01-23T20:51:48.084Z,3.38
2023-01-23T20:54:57.118Z,3.34
2023-01-23T20:58:21.512Z,3.38
2023-01-23T21:01:57.489Z,3.37
2023-01-23T21:05:05.227Z,3.39
2023-01-23T21:08:11.752Z,3.43
2023-01-23T21:11:20.571Z,3.41
2023-01-23T21:14:32.823Z,3.45
2023-01-23T21:17:47.211Z,3.51
2023-01-23T21:20:56.242Z,3.56
2023-01-23T21:24:03.387Z,3.61
2023-01-23T21:27:11.460Z,3.70
2023-01-23T21:30:20.043Z,3.64
2023-01-23T21:33:33.312Z,3.58
2023-01-23T21:36:39.588Z,3.62
2023-01-23T21:39:46.028Z,3.64
2023-01-23T21:42:57.325Z,3.64
2023-01-23T21:46:05.849Z,3.57
2023-01-23T21:49:16.780Z,3.61
2023-01-23T21:52:23.533Z,3.71
2023-01-23T21:55:31.426Z,3.57
2023-01-23T21:58:40.223Z,3.56
2023-01-23T22:01:48.141Z,3.53
2023-01-23T22:04:55.803Z,3.56
2023-01-23T22:08:04.419Z,3.52
2023-01-23T22:11:13.372Z,3.36
2023-01-23T22:14:21.927Z,3.30
2023-01-23T22:17:28.845Z,3.31
2023-01-23T22:20:39.685Z,3.41
2023-01-23T22:23:52.555Z,3.43
2023-01-23T22:27:04.363Z,3.44
2023-01-23T22:30:16.595Z,3.51
2023-01-23T22:33:39.505Z,3.52
2023-01-23T22:37:01.813Z,3.46
2023-01-23T22:40:09.149Z,3.53
2023-01-23T22:43:19.175Z,3.51
2023-01-23T22:46:27.618Z,3.53
2023-01-23T22:49:37.635Z,3.48
2023-01-23T22:52:46.540Z,3.49
2023-01-23T22:55:54.543Z,3.52
2023-01-23T22:59:04.525Z,3.51
2023-01-23T23:02:14.082Z,3.49
2023-01-23T23:05:23.319Z,3.53
2023-01-23T23:08:36.124Z,3.50
2023-01-23T23:11:50.586Z,3.48
2023-01-23T23:15:00.222Z,3.45
2023-01-23T23:18:07.523Z,3.45
2023-01-23T23:21:17.063Z,3.49
2023-01-23T23:24:27.778Z,3.50
2023-01-23T23:27:36.563Z,3.50
2023-01-23T23:30:44.467Z,3.49
2023-01-23T23:33:55.364Z,3.53
2023-01-23T23:40:38.730Z,3.59
2023-01-23T23:43:49.470Z,3.61
2023-01-23T23:54:23.567Z,3.70
2023-01-23T23:57:35.120Z,3.67
